sensor_id;sensor_type;location;lat;lon;timestamp;pressure;altitude;pressure_sealevel;temperature;humidity
27864;BME280;15980;51.092;13.916;2023-03-20T00:01:51;98690.25;;;9.69;89.36
27864;BME280;15980;51.092;13.916;2023-03-20T00:11:52;98684.97;;;9.85;88.20
27864;BME280;15980;51.092;13.916;2023-03-20T00:21:55;98703.34;;;9.84;88.32
27864;BME280;15980;51.092;13.916;2023-03-20T00:31:57;98696.53;;;9.90;87.72
27864;BME280;15980;51.092;13.916;2023-03-20T00:42:01;98703.09;;;9.98;88.09
27864;BME280;15980;51.092;13.916;2023-03-20T00:52:03;98691.38;;;10.10;87.21
27864;BME280;15980;51.092;13.916;2023-03-20T01:02:03;98692.16;;;10.10;86.39
27864;BME280;15980;51.092;13.916;2023-03-20T01:12:05;98691.13;;;10.02;87.01
27864;BME280;15980;51.092;13.916;2023-03-20T01:22:05;98685.69;;;9.94;87.52
27864;BME280;15980;51.092;13.916;2023-03-20T01:32:15;98683.63;;;9.91;87.55
27864;BME280;15980;51.092;13.916;2023-03-20T01:42:15;98686.22;;;9.87;87.68
27864;BME280;15980;51.092;13.916;2023-03-20T01:52:16;98675.81;;;9.81;87.86
27864;BME280;15980;51.092;13.916;2023-03-20T02:02:20;98680.25;;;9.73;87.79
27864;BME280;15980;51.092;13.916;2023-03-20T02:12:21;98684.59;;;9.74;87.87
27864;BME280;15980;51.092;13.916;2023-03-20T02:53:38;98683.91;;;9.77;87.67
27864;BME280;15980;51.092;13.916;2023-03-20T03:03:53;98677.28;;;9.78;87.57
27864;BME280;15980;51.092;13.916;2023-03-20T03:13:55;98678.22;;;9.82;87.27
27864;BME280;15980;51.092;13.916;2023-03-20T03:23:57;98678.22;;;9.82;86.86
27864;BME280;15980;51.092;13.916;2023-03-20T03:33:58;98676.63;;;9.81;87.15
27864;BME280;15980;51.092;13.916;2023-03-20T03:44:40;98677.09;;;9.83;86.70
27864;BME280;15980;51.092;13.916;2023-03-20T03:54:45;98673.41;;;9.79;87.09
27864;BME280;15980;51.092;13.916;2023-03-20T04:04:50;98687.59;;;9.81;86.66
27864;BME280;15980;51.092;13.916;2023-03-20T04:14:51;98686.66;;;9.77;86.80
27864;BME280;15980;51.092;13.916;2023-03-20T04:24:52;98684.59;;;9.74;86.54
27864;BME280;15980;51.092;13.916;2023-03-20T04:34:52;98692.81;;;9.74;86.33
27864;BME280;15980;51.092;13.916;2023-03-20T04:44:52;98695.19;;;9.75;86.50
27864;BME280;15980;51.092;13.916;2023-03-20T04:54:52;98694.13;;;9.68;86.97
27864;BME280;15980;51.092;13.916;2023-03-20T05:04:53;98703.69;;;9.62;86.94
27864;BME280;15980;51.092;13.916;2023-03-20T05:14:53;98711.59;;;9.63;87.00
27864;BME280;15980;51.092;13.916;2023-03-20T05:24:53;98718.84;;;9.80;86.29
27864;BME280;15980;51.092;13.916;2023-03-20T05:34:53;98736.97;;;9.93;85.78
27864;BME280;15980;51.092;13.916;2023-03-20T05:44:54;98742.53;;;10.05;85.21
27864;BME280;15980;51.092;13.916;2023-03-20T05:54:54;98746.00;;;10.15;84.83
27864;BME280;15980;51.092;13.916;2023-03-20T06:04:54;98754.81;;;10.41;83.97
27864;BME280;15980;51.092;13.916;2023-03-20T06:14:55;98757.72;;;10.57;82.98
27864;BME280;15980;51.092;13.916;2023-03-20T06:24:55;98774.13;;;10.78;82.14
27864;BME280;15980;51.092;13.916;2023-03-20T06:34:55;98773.03;;;10.91;81.84
27864;BME280;15980;51.092;13.916;2023-03-20T06:44:55;98774.84;;;10.87;81.24
27864;BME280;15980;51.092;13.916;2023-03-20T06:54:56;98778.44;;;10.66;81.65
27864;BME280;15980;51.092;13.916;2023-03-20T07:04:56;98772.06;;;10.75;81.77
27864;BME280;15980;51.092;13.916;2023-03-20T07:14:56;98776.59;;;10.58;81.99
27864;BME280;15980;51.092;13.916;2023-03-20T07:24:57;98772.53;;;10.77;82.20
27864;BME280;15980;51.092;13.916;2023-03-20T07:34:57;98780.81;;;11.01;81.73
27864;BME280;15980;51.092;13.916;2023-03-20T07:44:57;98795.25;;;11.22;80.55
27864;BME280;15980;51.092;13.916;2023-03-20T07:54:58;98792.44;;;11.80;78.48
27864;BME280;15980;51.092;13.916;2023-03-20T08:04:58;98794.25;;;13.00;74.99
27864;BME280;15980;51.092;13.916;2023-03-20T08:14:58;98808.88;;;12.44;75.42
27864;BME280;15980;51.092;13.916;2023-03-20T08:24:59;98807.19;;;12.68;75.62
27864;BME280;15980;51.092;13.916;2023-03-20T08:34:59;98807.22;;;12.55;75.88
27864;BME280;15980;51.092;13.916;2023-03-20T08:44:59;98811.81;;;12.51;76.37
27864;BME280;15980;51.092;13.916;2023-03-20T08:55:00;98820.78;;;12.76;74.80
27864;BME280;15980;51.092;13.916;2023-03-20T09:05:00;98822.59;;;13.60;73.07
27864;BME280;15980;51.092;13.916;2023-03-20T09:15:02;98828.47;;;13.58;72.42
27864;BME280;15980;51.092;13.916;2023-03-20T09:25:03;98809.06;;;14.60;70.08
27864;BME280;15980;51.092;13.916;2023-03-20T09:35:05;98815.28;;;14.95;68.39
27864;BME280;15980;51.092;13.916;2023-03-20T09:55:21;98838.31;;;13.75;72.05
27864;BME280;15980;51.092;13.916;2023-03-20T10:05:32;98842.22;;;13.27;73.63
27864;BME280;15980;51.092;13.916;2023-03-20T10:15:41;98836.53;;;14.53;70.55
27864;BME280;15980;51.092;13.916;2023-03-20T10:25:53;98839.91;;;13.92;70.76
27864;BME280;15980;51.092;13.916;2023-03-20T10:46:13;98828.13;;;14.30;69.96
27864;BME280;15980;51.092;13.916;2023-03-20T11:07:01;98842.16;;;13.70;73.11
27864;BME280;15980;51.092;13.916;2023-03-20T11:17:06;98842.78;;;13.64;73.36
27864;BME280;15980;51.092;13.916;2023-03-20T11:27:09;98853.56;;;13.53;74.10
27864;BME280;15980;51.092;13.916;2023-03-20T11:37:26;98843.94;;;13.47;74.13
27864;BME280;15980;51.092;13.916;2023-03-20T11:47:30;98841.78;;;13.25;74.43
27864;BME280;15980;51.092;13.916;2023-03-20T11:57:37;98826.22;;;13.79;73.60
27864;BME280;15980;51.092;13.916;2023-03-20T12:07:38;98818.38;;;14.52;70.05
27864;BME280;15980;51.092;13.916;2023-03-20T12:27:43;98802.22;;;13.64;71.37
27864;BME280;15980;51.092;13.916;2023-03-20T12:37:45;98803.13;;;14.23;71.04
27864;BME280;15980;51.092;13.916;2023-03-20T12:48:05;98788.50;;;14.38;70.81
27864;BME280;15980;51.092;13.916;2023-03-20T13:39:21;98753.84;;;13.86;72.57
27864;BME280;15980;51.092;13.916;2023-03-20T14:00:05;98746.22;;;13.79;73.09
27864;BME280;15980;51.092;13.916;2023-03-20T14:20:32;98750.84;;;13.40;74.19
27864;BME280;15980;51.092;13.916;2023-03-20T14:30:42;98754.91;;;12.99;76.06
27864;BME280;15980;51.092;13.916;2023-03-20T14:41:07;98753.63;;;12.65;77.27
27864;BME280;15980;51.092;13.916;2023-03-20T14:51:20;98748.50;;;12.36;78.63
27864;BME280;15980;51.092;13.916;2023-03-20T15:01:26;98737.56;;;12.11;81.22
27864;BME280;15980;51.092;13.916;2023-03-20T15:11:27;98731.72;;;12.13;83.77
27864;BME280;15980;51.092;13.916;2023-03-20T15:21:36;98734.06;;;11.99;85.21
27864;BME280;15980;51.092;13.916;2023-03-20T15:31:38;98734.69;;;11.80;86.23
27864;BME280;15980;51.092;13.916;2023-03-20T15:41:38;98734.25;;;11.78;88.61
27864;BME280;15980;51.092;13.916;2023-03-20T15:51:39;98738.34;;;11.59;90.00
27864;BME280;15980;51.092;13.916;2023-03-20T16:01:39;98719.03;;;11.44;90.70
27864;BME280;15980;51.092;13.916;2023-03-20T16:11:43;98738.16;;;11.04;91.45
27864;BME280;15980;51.092;13.916;2023-03-20T16:21:48;98729.78;;;11.00;92.75
27864;BME280;15980;51.092;13.916;2023-03-20T16:32:03;98728.78;;;11.05;92.38
27864;BME280;15980;51.092;13.916;2023-03-20T16:42:22;98729.09;;;10.91;93.37
27864;BME280;15980;51.092;13.916;2023-03-20T16:52:28;98741.75;;;10.71;94.84
27864;BME280;15980;51.092;13.916;2023-03-20T17:02:35;98737.41;;;10.70;95.82
27864;BME280;15980;51.092;13.916;2023-03-20T17:12:37;98745.16;;;10.68;95.31
27864;BME280;15980;51.092;13.916;2023-03-20T17:22:38;98743.22;;;10.68;95.17
27864;BME280;15980;51.092;13.916;2023-03-20T17:32:38;98750.66;;;10.68;95.28
27864;BME280;15980;51.092;13.916;2023-03-20T17:42:39;98733.84;;;10.57;95.53
27864;BME280;15980;51.092;13.916;2023-03-20T17:52:39;98728.44;;;10.49;95.48
27864;BME280;15980;51.092;13.916;2023-03-20T18:02:39;98725.47;;;10.42;96.01
27864;BME280;15980;51.092;13.916;2023-03-20T18:12:39;98739.16;;;10.42;95.80
27864;BME280;15980;51.092;13.916;2023-03-20T18:22:40;98740.44;;;10.44;95.21
27864;BME280;15980;51.092;13.916;2023-03-20T18:32:40;98741.91;;;10.42;94.74
27864;BME280;15980;51.092;13.916;2023-03-20T18:42:40;98739.69;;;10.35;93.06
27864;BME280;15980;51.092;13.916;2023-03-20T18:52:40;98752.47;;;10.31;92.54
27864;BME280;15980;51.092;13.916;2023-03-20T19:02:41;98748.94;;;10.30;93.08
27864;BME280;15980;51.092;13.916;2023-03-20T19:12:41;98753.50;;;10.26;92.56
27864;BME280;15980;51.092;13.916;2023-03-20T19:22:41;98739.66;;;10.23;91.92
27864;BME280;15980;51.092;13.916;2023-03-20T19:32:42;98743.72;;;10.17;93.04
27864;BME280;15980;51.092;13.916;2023-03-20T19:42:42;98730.34;;;10.15;93.47
27864;BME280;15980;51.092;13.916;2023-03-20T19:52:42;98732.69;;;10.04;93.42
27864;BME280;15980;51.092;13.916;2023-03-20T20:02:43;98734.91;;;9.90;94.09
27864;BME280;15980;51.092;13.916;2023-03-20T20:12:44;98723.94;;;9.69;93.83
27864;BME280;15980;51.092;13.916;2023-03-20T20:22:46;98723.69;;;9.33;94.25
27864;BME280;15980;51.092;13.916;2023-03-20T20:32:46;98715.28;;;9.08;96.42
27864;BME280;15980;51.092;13.916;2023-03-20T20:42:47;98721.06;;;8.77;96.71
27864;BME280;15980;51.092;13.916;2023-03-20T20:52:48;98719.13;;;8.78;97.25
27864;BME280;15980;51.092;13.916;2023-03-20T21:02:48;98721.94;;;8.99;97.24
27864;BME280;15980;51.092;13.916;2023-03-20T21:12:48;98723.50;;;9.08;96.28
27864;BME280;15980;51.092;13.916;2023-03-20T21:22:49;98727.03;;;9.09;95.89
27864;BME280;15980;51.092;13.916;2023-03-20T21:32:49;98729.41;;;9.19;95.87
27864;BME280;15980;51.092;13.916;2023-03-20T21:42:49;98729.38;;;9.28;95.56
27864;BME280;15980;51.092;13.916;2023-03-20T21:52:50;98718.97;;;9.42;94.53
27864;BME280;15980;51.092;13.916;2023-03-20T22:02:50;98725.81;;;9.57;93.59
27864;BME280;15980;51.092;13.916;2023-03-20T22:12:50;98733.22;;;9.56;93.45
27864;BME280;15980;51.092;13.916;2023-03-20T22:22:51;98742.53;;;9.64;93.18
27864;BME280;15980;51.092;13.916;2023-03-20T22:32:51;98753.00;;;9.62;93.32
27864;BME280;15980;51.092;13.916;2023-03-20T22:42:52;98752.47;;;9.68;93.61
27864;BME280;15980;51.092;13.916;2023-03-20T22:52:52;98752.69;;;9.63;93.74
27864;BME280;15980;51.092;13.916;2023-03-20T23:02:53;98735.44;;;9.63;94.50
27864;BME280;15980;51.092;13.916;2023-03-20T23:12:53;98732.22;;;9.61;95.71
27864;BME280;15980;51.092;13.916;2023-03-20T23:22:53;98727.97;;;9.42;96.31
27864;BME280;15980;51.092;13.916;2023-03-20T23:32:53;98732.94;;;9.49;97.68
27864;BME280;15980;51.092;13.916;2023-03-20T23:42:54;98734.72;;;9.45;97.58
27864;BME280;15980;51.092;13.916;2023-03-20T23:52:54;98732.78;;;9.45;97.53
